Time;durP1;ratioP1;P1;durP2;ratioP2;P2;SDS_P1;SDS_P2;PMS_P1;PMS_P2;Temp;Humidity;BMP_temperature;BMP_pressure;BME280_temperature;BME280_humidity;BME280_pressure;Samples;Min_cycle;Max_cycle;Signal;HPM_P1;HPM_P2
2023/04/24 00:01:21;;;;;;;2.53;1.40;;;11.00;99.90;;;;;;4843443;29;20049;-79
2023/04/24 00:03:48;;;;;;;2.67;0.77;;;10.90;99.90;;;;;;4858709;29;20046;-79
2023/04/24 00:06:16;;;;;;;0.85;0.63;;;10.80;99.90;;;;;;4843936;29;20133;-79
2023/04/24 00:08:43;;;;;;;1.02;0.60;;;10.70;99.90;;;;;;4844385;29;20487;-79
2023/04/24 00:11:10;;;;;;;1.08;0.70;;;10.70;99.90;;;;;;4883974;29;20076;-79
2023/04/24 00:13:37;;;;;;;2.05;0.50;;;10.60;99.90;;;;;;4858159;29;20049;-79
2023/04/24 00:16:05;;;;;;;7.32;0.63;;;10.50;99.90;;;;;;4874123;29;20042;-79
2023/04/24 00:18:31;;;;;;;0.80;0.57;;;10.40;99.90;;;;;;4858502;29;20046;-79
2023/04/24 00:20:58;;;;;;;1.77;0.60;;;10.40;99.90;;;;;;4858931;29;20862;-79
2023/04/24 00:23:25;;;;;;;0.95;0.50;;;10.30;99.90;;;;;;4873584;29;20042;-79
2023/04/24 00:25:51;;;;;;;0.70;0.50;;;10.20;99.90;;;;;;4873900;29;20148;-79
2023/04/24 00:28:18;;;;;;;1.30;0.50;;;10.20;99.90;;;;;;4858243;29;20411;-79
2023/04/24 00:30:45;;;;;;;1.45;0.60;;;10.20;99.90;;;;;;4873964;29;20456;-79
2023/04/24 00:33:11;;;;;;;2.58;0.63;;;10.10;99.90;;;;;;4860034;29;20095;-79
2023/04/24 00:35:38;;;;;;;0.88;0.68;;;10.10;99.90;;;;;;4876506;29;20522;-79
2023/04/24 00:38:05;;;;;;;4.45;0.77;;;10.00;99.90;;;;;;4876680;29;20077;-79
2023/04/24 00:40:32;;;;;;;1.65;0.70;;;10.00;99.90;;;;;;4876612;29;20120;-79
2023/04/24 00:42:59;;;;;;;2.45;0.90;;;10.00;99.90;;;;;;4861545;29;20042;-79
2023/04/24 00:45:26;;;;;;;1.13;0.70;;;10.00;99.90;;;;;;4891610;29;20090;-79
2023/04/24 00:47:53;;;;;;;2.83;0.88;;;10.00;99.90;;;;;;4846606;29;20045;-78
2023/04/24 00:50:21;;;;;;;1.38;0.80;;;10.00;99.90;;;;;;4876950;29;20038;-79
2023/04/24 00:52:48;;;;;;;2.25;0.88;;;10.10;99.90;;;;;;4891917;29;20046;-79
2023/04/24 00:55:15;;;;;;;1.25;0.80;;;10.00;99.90;;;;;;4876334;29;20052;-79
2023/04/24 00:57:43;;;;;;;1.70;1.00;;;10.10;99.90;;;;;;4876541;29;20507;-79
2023/04/24 01:00:10;;;;;;;1.90;1.10;;;10.00;99.90;;;;;;4876393;29;20045;-79
2023/04/24 01:02:40;;;;;;;2.10;1.00;;;10.00;99.90;;;;;;4860741;29;20045;-79
2023/04/24 01:05:08;;;;;;;2.28;1.10;;;10.00;99.90;;;;;;4876058;29;20060;-79
2023/04/24 01:07:35;;;;;;;2.03;1.20;;;10.00;99.90;;;;;;4891392;29;20057;-79
2023/04/24 01:10:02;;;;;;;1.67;1.00;;;10.00;99.90;;;;;;4861184;29;20052;-79
2023/04/24 01:12:29;;;;;;;3.00;1.40;;;10.00;99.90;;;;;;4875909;29;20103;-79
2023/04/24 01:14:57;;;;;;;2.10;1.20;;;10.00;99.90;;;;;;4876030;29;20041;-79
2023/04/24 01:17:23;;;;;;;2.80;1.50;;;10.00;99.90;;;;;;4861334;29;20052;-79
2023/04/24 01:19:53;;;;;;;2.80;1.52;;;10.00;99.90;;;;;;4891503;29;20045;-79
2023/04/24 01:22:20;;;;;;;2.83;1.52;;;10.00;99.90;;;;;;4880851;29;20119;-79
2023/04/24 01:24:47;;;;;;;2.70;1.40;;;9.90;99.90;;;;;;4876906;29;20462;-79
2023/04/24 01:27:14;;;;;;;2.90;1.55;;;9.90;99.90;;;;;;4878475;29;20076;-79
2023/04/24 01:29:41;;;;;;;3.42;1.70;;;10.00;99.90;;;;;;4876030;29;20106;-79
2023/04/24 01:32:08;;;;;;;2.80;1.70;;;9.90;99.90;;;;;;4861044;29;20037;-78
2023/04/24 01:34:35;;;;;;;3.13;1.77;;;9.90;99.90;;;;;;4860799;29;20474;-79
2023/04/24 01:37:02;;;;;;;3.35;1.67;;;9.90;99.90;;;;;;4876401;29;20060;-79
2023/04/24 01:39:29;;;;;;;3.08;1.85;;;9.90;99.90;;;;;;4875673;29;20045;-78
2023/04/24 01:41:56;;;;;;;3.10;1.90;;;9.90;99.90;;;;;;4890919;29;20056;-79
2023/04/24 01:44:23;;;;;;;4.53;2.03;;;9.90;99.90;;;;;;4860577;29;20045;-79
2023/04/24 01:46:50;;;;;;;2.80;1.75;;;9.90;99.90;;;;;;4860687;29;20487;-79
2023/04/24 01:49:17;;;;;;;3.88;1.92;;;9.90;99.90;;;;;;4881565;29;20045;-79
2023/04/24 01:51:44;;;;;;;2.33;1.50;;;9.90;99.90;;;;;;4863041;29;20046;-79
2023/04/24 01:54:11;;;;;;;3.38;2.10;;;9.90;99.90;;;;;;4879047;29;20045;-79
2023/04/24 01:56:42;;;;;;;2.85;1.80;;;9.90;99.90;;;;;;4863350;29;20054;-79
2023/04/24 01:59:11;;;;;;;2.80;1.60;;;9.90;99.90;;;;;;4863334;29;20045;-79
2023/04/24 02:01:38;;;;;;;2.78;1.60;;;9.90;99.90;;;;;;4873071;29;20132;-78
2023/04/24 02:04:07;;;;;;;2.47;1.55;;;9.90;99.90;;;;;;4881966;29;20057;-79
2023/04/24 02:06:33;;;;;;;3.40;1.73;;;9.90;99.90;;;;;;4896915;29;20053;-78
2023/04/24 02:09:01;;;;;;;2.85;1.70;;;9.90;99.90;;;;;;4866700;29;20542;-79
2023/04/24 02:11:27;;;;;;;2.47;1.42;;;9.80;99.90;;;;;;4897432;29;20053;-79
2023/04/24 02:13:54;;;;;;;3.40;1.98;;;9.90;99.90;;;;;;4896950;29;20055;-79
2023/04/24 02:16:21;;;;;;;3.13;1.75;;;9.90;99.90;;;;;;4866659;29;20041;-79
2023/04/24 02:18:47;;;;;;;3.92;2.47;;;9.90;99.90;;;;;;4866210;29;20045;-79
2023/04/24 02:21:14;;;;;;;3.78;2.60;;;9.90;99.90;;;;;;4865951;29;20049;-78
2023/04/24 02:23:41;;;;;;;4.88;3.10;;;9.90;99.90;;;;;;4878103;29;20050;-79
2023/04/24 02:26:07;;;;;;;4.78;2.97;;;9.90;99.90;;;;;;4863534;29;20407;-78
2023/04/24 02:28:34;;;;;;;5.35;3.50;;;9.90;99.90;;;;;;4878630;29;20098;-79
2023/04/24 02:31:01;;;;;;;4.35;3.05;;;9.90;99.90;;;;;;4847876;29;20042;-79
2023/04/24 02:33:28;;;;;;;4.15;2.60;;;9.90;99.90;;;;;;4880072;29;20046;-78
2023/04/24 02:35:55;;;;;;;4.82;2.60;;;9.90;99.90;;;;;;4866094;29;20064;-79
2023/04/24 02:38:21;;;;;;;3.47;2.08;;;9.90;99.90;;;;;;4866383;29;20056;-79
2023/04/24 02:40:48;;;;;;;3.63;2.25;;;9.90;99.90;;;;;;4850947;29;20049;-79
2023/04/24 02:43:15;;;;;;;3.55;2.53;;;9.90;99.90;;;;;;4866310;29;20049;-79
2023/04/24 02:45:41;;;;;;;4.47;3.22;;;9.90;99.90;;;;;;4850890;29;20623;-78
2023/04/24 02:48:08;;;;;;;4.13;3.20;;;9.80;99.90;;;;;;4866111;29;20541;-79
2023/04/24 02:50:35;;;;;;;5.20;3.47;;;9.80;99.90;;;;;;4866218;29;20045;-79
2023/04/24 02:53:01;;;;;;;4.40;3.28;;;9.80;99.90;;;;;;4881329;29;20041;-78
2023/04/24 02:55:28;;;;;;;4.78;3.33;;;9.70;99.90;;;;;;4881170;29;20041;-79
2023/04/24 02:57:55;;;;;;;5.47;3.80;;;9.70;99.90;;;;;;4880903;29;20052;-79
2023/04/24 03:00:21;;;;;;;5.05;3.58;;;9.70;99.90;;;;;;4862968;29;20076;-79
2023/04/24 03:02:49;;;;;;;5.00;3.42;;;9.70;99.90;;;;;;4878134;29;20072;-79
2023/04/24 03:05:16;;;;;;;4.30;3.35;;;9.60;99.90;;;;;;4863353;29;20530;-79
2023/04/24 03:07:43;;;;;;;8.88;3.60;;;9.60;99.90;;;;;;4859225;29;20137;-79
2023/04/24 03:10:09;;;;;;;4.50;3.50;;;9.60;99.90;;;;;;4844911;29;20038;-79
2023/04/24 03:12:36;;;;;;;5.35;3.72;;;9.60;99.90;;;;;;4860157;29;20133;-79
2023/04/24 03:15:03;;;;;;;4.78;3.22;;;9.60;99.90;;;;;;4859538;29;20273;-78
2023/04/24 03:17:30;;;;;;;4.97;3.53;;;9.60;99.90;;;;;;4863247;29;20400;-79
2023/04/24 03:19:56;;;;;;;4.47;3.42;;;9.60;99.90;;;;;;4862482;29;20052;-79
2023/04/24 03:22:23;;;;;;;4.93;3.33;;;9.50;99.90;;;;;;4878275;29;20510;-79
2023/04/24 03:24:50;;;;;;;6.45;3.90;;;9.50;99.90;;;;;;4877882;29;20493;-79
2023/04/24 03:27:16;;;;;;;5.35;3.65;;;9.50;99.90;;;;;;4862903;29;20392;-79
2023/04/24 03:29:43;;;;;;;5.43;3.58;;;9.50;99.90;;;;;;4876645;29;20042;-79
2023/04/24 03:32:10;;;;;;;5.32;3.72;;;9.50;99.90;;;;;;4878079;29;20052;-79
2023/04/24 03:34:36;;;;;;;5.50;3.58;;;9.50;99.90;;;;;;4878297;29;20136;-79
2023/04/24 03:37:03;;;;;;;6.35;3.85;;;9.50;99.90;;;;;;4862844;29;20049;-79
2023/04/24 03:39:30;;;;;;;5.13;3.72;;;9.50;99.90;;;;;;4862593;29;20049;-79
2023/04/24 03:41:56;;;;;;;5.80;4.05;;;9.50;99.90;;;;;;4862256;29;20448;-79
2023/04/24 03:44:23;;;;;;;5.47;4.15;;;9.50;99.90;;;;;;4878101;29;20693;-79
2023/04/24 03:46:49;;;;;;;5.13;3.72;;;9.50;99.90;;;;;;4862232;29;20042;-79
2023/04/24 03:49:16;;;;;;;5.07;3.75;;;9.50;99.90;;;;;;4862147;29;20410;-79
2023/04/24 03:51:43;;;;;;;5.72;3.88;;;9.50;99.90;;;;;;4877523;29;20041;-79
2023/04/24 03:54:10;;;;;;;5.57;3.78;;;9.50;99.90;;;;;;4877585;29;20092;-79
2023/04/24 03:56:36;;;;;;;7.65;3.88;;;9.50;99.90;;;;;;4893166;29;20057;-79
2023/04/24 03:59:03;;;;;;;5.60;4.38;;;9.50;99.90;;;;;;4861629;29;20048;-79
2023/04/24 04:01:30;;;;;;;5.43;4.28;;;9.50;99.90;;;;;;4859339;29;20038;-79
2023/04/24 04:03:57;;;;;;;6.05;4.38;;;9.50;99.90;;;;;;4858580;29;20046;-79
2023/04/24 04:06:24;;;;;;;7.00;5.05;;;9.50;99.90;;;;;;4859100;29;20405;-79
2023/04/24 04:08:50;;;;;;;6.10;4.97;;;9.50;99.90;;;;;;4858868;29;20049;-79
2023/04/24 04:11:17;;;;;;;6.50;4.60;;;9.50;99.90;;;;;;4858306;29;20107;-79
2023/04/24 04:13:44;;;;;;;8.20;4.70;;;9.50;99.90;;;;;;4873965;29;20045;-79
2023/04/24 04:16:10;;;;;;;6.43;4.47;;;9.50;99.90;;;;;;4873976;29;20042;-79
2023/04/24 04:18:37;;;;;;;5.95;4.68;;;9.40;99.90;;;;;;4873995;29;20053;-79
2023/04/24 04:21:04;;;;;;;8.27;4.95;;;9.40;99.90;;;;;;4871875;29;20046;-79
2023/04/24 04:23:31;;;;;;;6.55;4.50;;;9.40;99.90;;;;;;4873408;29;20050;-79
2023/04/24 04:25:58;;;;;;;6.53;5.05;;;9.40;99.90;;;;;;4873509;29;20119;-79
2023/04/24 04:28:26;;;;;;;8.15;4.65;;;9.40;99.90;;;;;;4858206;29;20050;-79
2023/04/24 04:30:53;;;;;;;5.90;4.43;;;9.40;99.90;;;;;;4871421;29;20045;-79
2023/04/24 04:33:21;;;;;;;6.28;4.60;;;9.30;99.90;;;;;;4858747;29;20452;-79
2023/04/24 04:35:56;;;;;;;6.70;4.50;;;9.30;99.90;;;;;;4858368;29;20549;-79
2023/04/24 04:38:23;;;;;;;5.63;4.38;;;9.30;99.90;;;;;;4859313;29;20046;-79
2023/04/24 04:40:50;;;;;;;6.10;4.47;;;9.30;99.90;;;;;;4842739;29;20049;-79
2023/04/24 04:43:16;;;;;;;6.55;4.50;;;9.30;99.90;;;;;;4857525;29;20061;-79
2023/04/24 04:45:44;;;;;;;6.60;4.85;;;9.30;99.90;;;;;;4857801;29;20038;-79
2023/04/24 04:48:13;;;;;;;5.22;3.85;;;9.30;99.90;;;;;;4872796;29;20487;-79
2023/04/24 04:50:40;;;;;;;6.93;4.30;;;9.30;99.90;;;;;;4859436;29;20049;-79
2023/04/24 04:53:06;;;;;;;5.30;4.03;;;9.30;99.90;;;;;;4876248;29;20049;-79
2023/04/24 04:55:33;;;;;;;6.65;4.20;;;9.30;99.90;;;;;;4876416;29;20041;-79
2023/04/24 04:58:00;;;;;;;6.78;4.10;;;9.30;99.90;;;;;;4846103;29;20053;-79
2023/04/24 05:00:28;;;;;;;6.55;4.40;;;9.30;99.90;;;;;;4861716;29;20472;-79
2023/04/24 05:02:55;;;;;;;6.38;4.15;;;9.30;99.90;;;;;;4832522;29;20049;-79
2023/04/24 05:05:22;;;;;;;6.07;3.80;;;9.30;99.90;;;;;;4858242;29;20130;-79
2023/04/24 05:07:49;;;;;;;5.60;3.97;;;9.40;99.90;;;;;;4858038;29;20132;-79
2023/04/24 05:10:15;;;;;;;6.00;4.22;;;9.30;99.90;;;;;;4857949;29;20136;-79
2023/04/24 05:12:42;;;;;;;5.88;4.05;;;9.40;99.90;;;;;;4851362;29;20083;-79
2023/04/24 05:15:09;;;;;;;6.30;4.18;;;9.40;99.90;;;;;;4857935;29;20053;-79
2023/04/24 05:17:36;;;;;;;6.78;3.70;;;9.40;99.90;;;;;;4873624;29;20060;-79
2023/04/24 05:20:05;;;;;;;5.82;4.20;;;9.40;99.90;;;;;;4873048;29;20045;-79
2023/04/24 05:22:32;;;;;;;6.85;4.57;;;9.40;99.90;;;;;;4860555;29;20124;-79
2023/04/24 05:24:58;;;;;;;5.32;3.92;;;9.40;99.90;;;;;;4891298;29;20045;-78
2023/04/24 05:27:25;;;;;;;6.20;4.28;;;9.40;99.90;;;;;;4860954;29;20044;-79
2023/04/24 05:29:52;;;;;;;6.55;3.95;;;9.40;99.90;;;;;;4860964;29;20046;-79
2023/04/24 05:32:18;;;;;;;6.10;4.20;;;9.40;99.90;;;;;;4890792;29;20052;-79
2023/04/24 05:34:45;;;;;;;6.10;4.10;;;9.40;99.90;;;;;;4856143;29;20045;-79
2023/04/24 05:37:12;;;;;;;5.60;4.15;;;9.40;99.90;;;;;;4842150;29;20053;-79
2023/04/24 05:39:39;;;;;;;5.68;4.00;;;9.30;99.90;;;;;;4842956;29;20128;-78
2023/04/24 05:42:06;;;;;;;6.25;4.30;;;9.30;99.90;;;;;;4862927;29;20046;-78
2023/04/24 05:44:32;;;;;;;6.38;4.28;;;9.30;99.90;;;;;;4858940;29;20110;-79
2023/04/24 05:47:00;;;;;;;5.78;4.10;;;9.30;99.90;;;;;;4876419;29;20113;-78
2023/04/24 05:49:27;;;;;;;5.60;3.80;;;9.40;99.90;;;;;;4876469;29;20105;-78
2023/04/24 05:51:54;;;;;;;5.85;3.78;;;9.40;99.90;;;;;;4876681;29;20556;-79
2023/04/24 05:54:20;;;;;;;5.30;3.55;;;9.40;99.90;;;;;;4860777;29;20507;-78
2023/04/24 05:56:48;;;;;;;6.93;3.72;;;9.40;99.90;;;;;;4876719;29;20558;-78
2023/04/24 05:59:15;;;;;;;5.90;4.05;;;9.40;99.90;;;;;;4861411;29;20067;-78
2023/04/24 06:01:42;;;;;;;5.88;3.85;;;9.40;99.90;;;;;;4876374;29;20045;-78
2023/04/24 06:04:09;;;;;;;5.68;3.83;;;9.40;99.90;;;;;;4890355;29;20530;-78
2023/04/24 06:06:36;;;;;;;6.57;4.05;;;9.50;99.90;;;;;;4875760;29;20495;-78
2023/04/24 06:09:03;;;;;;;5.60;3.85;;;9.50;99.90;;;;;;4860944;29;20050;-79
2023/04/24 06:11:29;;;;;;;5.20;3.60;;;9.40;99.90;;;;;;4860295;29;20068;-79
2023/04/24 06:13:56;;;;;;;9.13;4.32;;;9.40;99.90;;;;;;4874933;29;20582;-78
2023/04/24 06:16:23;;;;;;;7.13;3.88;;;9.40;99.90;;;;;;4890684;29;20053;-78
2023/04/24 06:18:50;;;;;;;6.45;4.35;;;9.40;99.90;;;;;;4875456;29;20088;-78
2023/04/24 06:21:17;;;;;;;7.78;4.13;;;9.50;99.90;;;;;;4860138;29;20137;-78
2023/04/24 06:23:46;;;;;;;6.35;4.10;;;9.50;99.90;;;;;;4860752;29;20128;-78
2023/04/24 06:26:12;;;;;;;6.18;3.95;;;9.50;99.90;;;;;;4841647;29;20045;-79
2023/04/24 06:28:39;;;;;;;6.22;4.13;;;9.50;99.90;;;;;;4857953;29;20129;-78
2023/04/24 06:31:06;;;;;;;5.95;4.18;;;9.50;99.90;;;;;;4873059;29;20107;-78
2023/04/24 06:33:32;;;;;;;5.70;3.67;;;9.50;99.90;;;;;;4857958;29;20060;-78
2023/04/24 06:35:59;;;;;;;7.50;4.25;;;9.50;99.90;;;;;;4873088;29;20405;-78
2023/04/24 06:38:26;;;;;;;6.63;4.47;;;9.50;99.90;;;;;;4860540;29;20391;-79
2023/04/24 06:40:53;;;;;;;6.35;4.18;;;9.50;99.90;;;;;;4864064;29;20110;-78
2023/04/24 06:43:20;;;;;;;7.55;3.80;;;9.50;99.90;;;;;;4886959;29;20114;-79
2023/04/24 06:45:47;;;;;;;6.30;3.92;;;9.50;99.90;;;;;;4874512;29;20125;-79
2023/04/24 06:48:13;;;;;;;5.80;3.63;;;9.50;99.90;;;;;;4848545;29;20065;-79
2023/04/24 06:50:40;;;;;;;7.30;3.67;;;9.50;99.90;;;;;;4866738;29;20519;-80
2023/04/24 06:53:07;;;;;;;6.97;3.60;;;9.50;99.90;;;;;;4883045;29;20479;-78
2023/04/24 06:55:35;;;;;;;5.38;3.60;;;9.50;99.90;;;;;;4876745;29;20040;-80
2023/04/24 06:58:02;;;;;;;5.75;3.58;;;9.50;99.90;;;;;;4867153;29;20041;-80
2023/04/24 07:00:29;;;;;;;5.75;3.70;;;9.50;99.90;;;;;;4884896;29;20052;-79
2023/04/24 07:02:57;;;;;;;5.97;3.88;;;9.60;99.90;;;;;;4863896;29;20080;-78
2023/04/24 07:05:24;;;;;;;5.80;3.55;;;9.60;99.90;;;;;;4876254;29;20068;-78
2023/04/24 07:07:53;;;;;;;5.90;4.05;;;9.60;99.90;;;;;;4848349;29;20117;-78
2023/04/24 07:10:20;;;;;;;5.80;4.20;;;9.60;99.90;;;;;;4878127;29;20056;-78
2023/04/24 07:12:47;;;;;;;6.38;4.28;;;9.60;99.90;;;;;;4877853;29;20507;-79
2023/04/24 07:15:14;;;;;;;7.47;4.78;;;9.70;99.90;;;;;;4863439;29;20558;-79
2023/04/24 07:17:43;;;;;;;6.43;4.13;;;9.70;99.90;;;;;;4863395;29;20053;-79
2023/04/24 07:20:11;;;;;;;5.97;4.05;;;9.70;99.90;;;;;;4893499;29;20056;-79
2023/04/24 07:22:38;;;;;;;5.45;3.65;;;9.80;99.90;;;;;;4877521;29;20064;-79
2023/04/24 07:25:05;;;;;;;4.55;2.85;;;9.80;99.90;;;;;;4878015;29;20041;-79
2023/04/24 07:27:33;;;;;;;4.90;2.85;;;9.80;99.90;;;;;;4877147;29;20055;-78
2023/04/24 07:30:00;;;;;;;4.15;2.58;;;9.80;99.90;;;;;;4877931;29;20049;-79
2023/04/24 07:32:27;;;;;;;4.03;2.67;;;9.80;99.90;;;;;;4892870;29;20453;-79
2023/04/24 07:34:54;;;;;;;17.20;2.85;;;9.80;99.90;;;;;;4877607;29;20073;-79
2023/04/24 07:37:20;;;;;;;3.83;2.42;;;9.80;99.90;;;;;;4877575;29;20049;-78
2023/04/24 07:39:48;;;;;;;4.25;2.53;;;9.80;99.90;;;;;;4877584;29;20081;-79
2023/04/24 07:42:14;;;;;;;4.30;2.60;;;9.80;99.90;;;;;;4891985;29;20110;-79
2023/04/24 07:44:41;;;;;;;4.65;2.50;;;9.80;99.90;;;;;;4847175;29;20058;-79
2023/04/24 07:47:08;;;;;;;5.55;3.30;;;9.90;99.90;;;;;;4858216;29;20424;-79
2023/04/24 07:49:35;;;;;;;5.10;2.60;;;9.90;99.90;;;;;;4858474;29;20487;-79
2023/04/24 07:52:02;;;;;;;3.88;2.47;;;9.90;99.90;;;;;;4862141;29;20052;-79
2023/04/24 07:54:29;;;;;;;4.88;2.80;;;9.90;99.90;;;;;;4862873;29;20546;-79
2023/04/24 07:56:56;;;;;;;4.40;3.00;;;10.00;99.90;;;;;;4847589;29;20042;-79
2023/04/24 07:59:22;;;;;;;4.15;2.65;;;10.00;99.90;;;;;;4892308;29;20049;-79
2023/04/24 08:01:49;;;;;;;4.05;2.47;;;10.00;99.90;;;;;;4847235;29;20053;-79
2023/04/24 08:04:17;;;;;;;4.18;2.70;;;10.00;99.90;;;;;;4876429;29;20057;-79
2023/04/24 08:06:44;;;;;;;4.18;2.45;;;10.10;99.90;;;;;;4876886;29;20057;-79
2023/04/24 08:09:11;;;;;;;4.63;2.92;;;10.10;99.90;;;;;;4861953;29;20383;-79
2023/04/24 08:11:38;;;;;;;6.25;2.95;;;10.10;99.90;;;;;;4860903;29;20053;-79
2023/04/24 08:14:04;;;;;;;4.95;2.88;;;10.00;99.90;;;;;;4877198;29;20095;-79
2023/04/24 08:16:33;;;;;;;5.70;3.03;;;10.10;99.90;;;;;;4857895;29;20079;-79
2023/04/24 08:18:59;;;;;;;7.95;3.30;;;10.00;99.90;;;;;;4858409;29;20097;-78
2023/04/24 08:21:26;;;;;;;4.15;2.92;;;10.00;99.90;;;;;;4858654;29;20050;-78
2023/04/24 08:23:53;;;;;;;5.63;3.13;;;10.10;99.90;;;;;;4859008;29;20136;-79
2023/04/24 08:26:20;;;;;;;4.32;2.50;;;10.10;99.90;;;;;;4861175;29;20116;-79
2023/04/24 08:28:47;;;;;;;4.72;2.40;;;10.10;99.90;;;;;;4876736;29;20042;-78
2023/04/24 08:31:13;;;;;;;4.22;2.38;;;10.10;99.90;;;;;;4862018;29;20044;-79
2023/04/24 08:33:40;;;;;;;4.57;2.40;;;10.10;99.90;;;;;;4876366;29;20049;-78
2023/04/24 08:36:07;;;;;;;6.35;2.10;;;10.10;99.90;;;;;;4873332;29;20613;-79
2023/04/24 08:38:34;;;;;;;4.97;2.10;;;10.00;99.90;;;;;;4873882;29;20467;-79
2023/04/24 08:41:01;;;;;;;3.85;1.92;;;10.00;99.90;;;;;;4857921;29;20053;-79
2023/04/24 08:43:28;;;;;;;4.78;1.85;;;10.00;99.90;;;;;;4857995;29;20046;-79
2023/04/24 08:45:56;;;;;;;5.95;1.80;;;10.00;99.90;;;;;;4873509;29;20425;-79
2023/04/24 08:48:23;;;;;;;5.07;2.08;;;10.00;99.90;;;;;;4857900;29;20065;-80
2023/04/24 08:50:53;;;;;;;5.90;2.25;;;10.00;99.90;;;;;;4857906;29;20052;-79
2023/04/24 08:53:20;;;;;;;4.82;2.40;;;10.00;99.90;;;;;;4873398;29;20042;-79
2023/04/24 08:55:48;;;;;;;7.03;2.60;;;10.00;99.90;;;;;;4872622;29;20057;-79
2023/04/24 08:58:17;;;;;;;8.38;2.67;;;10.00;99.90;;;;;;4886853;29;20069;-78
2023/04/24 09:00:46;;;;;;;7.38;3.00;;;9.90;99.90;;;;;;4861351;29;20053;-79
2023/04/24 09:03:15;;;;;;;6.10;3.20;;;9.90;99.90;;;;;;4861728;29;20451;-79
2023/04/24 09:05:47;;;;;;;7.18;3.20;;;9.90;99.90;;;;;;4891191;29;20271;-79
2023/04/24 09:08:15;;;;;;;8.88;3.47;;;9.90;99.90;;;;;;4876967;29;20041;-79
2023/04/24 09:10:43;;;;;;;9.73;4.32;;;9.80;99.90;;;;;;4891393;29;20531;-79
2023/04/24 09:13:10;;;;;;;11.13;5.78;;;9.70;99.90;;;;;;4862028;29;20049;-79
2023/04/24 09:15:38;;;;;;;10.10;6.13;;;9.70;99.90;;;;;;4891757;29;20053;-79
2023/04/24 09:18:05;;;;;;;19.48;7.75;;;9.60;99.90;;;;;;4876311;29;20669;-79
2023/04/24 09:20:33;;;;;;;15.65;7.85;;;9.50;99.90;;;;;;4901151;29;20481;-78
2023/04/24 09:22:59;;;;;;;15.20;7.60;;;9.50;99.90;;;;;;4876535;29;20045;-78
2023/04/24 09:25:33;;;;;;;14.45;7.53;;;9.40;99.90;;;;;;4876445;29;20165;-79
2023/04/24 09:28:06;;;;;;;16.40;8.20;;;9.40;99.90;;;;;;4861708;29;20045;-79
2023/04/24 09:30:33;;;;;;;13.70;7.95;;;9.40;99.90;;;;;;4876052;29;20459;-78
2023/04/24 09:33:14;;;;;;;16.60;8.50;;;9.30;99.90;;;;;;4876256;29;20079;-79
2023/04/24 09:35:51;;;;;;;18.80;8.27;;;9.30;99.90;;;;;;4892053;29;20057;-79
2023/04/24 09:38:18;;;;;;;14.35;7.80;;;9.30;99.90;;;;;;4876382;29;20053;-78
2023/04/24 09:40:45;;;;;;;17.35;7.97;;;9.20;99.90;;;;;;4864654;29;20056;-79
2023/04/24 09:43:11;;;;;;;15.43;8.40;;;9.20;99.90;;;;;;4842556;29;20050;-78
2023/04/24 09:45:39;;;;;;;14.75;8.27;;;9.20;99.90;;;;;;4856947;29;20038;-78
2023/04/24 09:48:10;;;;;;;20.05;8.77;;;9.10;99.90;;;;;;4872787;29;20042;-78
2023/04/24 09:50:37;;;;;;;19.33;8.95;;;9.10;99.90;;;;;;4872157;29;20388;-78
2023/04/24 09:53:08;;;;;;;17.95;8.90;;;9.00;99.90;;;;;;4874647;29;20045;-78
2023/04/24 09:55:40;;;;;;;20.58;9.20;;;9.10;99.90;;;;;;4889733;29;20045;-78
2023/04/24 09:58:08;;;;;;;17.80;8.98;;;9.10;99.90;;;;;;4875619;29;20132;-78
2023/04/24 10:00:35;;;;;;;20.42;9.48;;;9.00;99.90;;;;;;4875347;29;20041;-78
2023/04/24 10:03:04;;;;;;;18.00;9.18;;;9.00;99.90;;;;;;4874466;29;20061;-78
2023/04/24 10:05:32;;;;;;;16.58;9.10;;;9.00;99.90;;;;;;4875424;29;20069;-78
2023/04/24 10:08:09;;;;;;;19.15;9.27;;;9.00;99.90;;;;;;4894755;29;20447;-79
2023/04/24 10:10:42;;;;;;;15.95;8.45;;;8.90;99.90;;;;;;4879134;29;20102;-79
2023/04/24 10:13:10;;;;;;;11.68;7.72;;;9.00;99.90;;;;;;4879335;29;20795;-79
2023/04/24 10:15:38;;;;;;;16.98;8.30;;;8.90;99.90;;;;;;4891122;29;20045;-79
2023/04/24 10:18:08;;;;;;;13.23;7.35;;;8.90;99.90;;;;;;4913031;29;20132;-78
2023/04/24 10:20:37;;;;;;;12.57;7.35;;;8.90;99.90;;;;;;4897401;29;20480;-78
2023/04/24 10:23:05;;;;;;;17.20;8.32;;;9.00;99.90;;;;;;4911341;29;20528;-79
2023/04/24 10:25:36;;;;;;;15.05;7.15;;;9.00;99.90;;;;;;4878727;29;20084;-79
2023/04/24 10:28:04;;;;;;;13.60;6.90;;;9.00;99.90;;;;;;4895051;29;20072;-79
2023/04/24 10:30:36;;;;;;;12.68;7.13;;;8.90;99.90;;;;;;4864259;29;20141;-78
2023/04/24 10:33:04;;;;;;;18.75;6.90;;;9.00;99.90;;;;;;4879280;29;20060;-79
2023/04/24 10:35:34;;;;;;;12.60;6.85;;;9.00;99.90;;;;;;4854719;29;20053;-79
2023/04/24 10:38:06;;;;;;;12.10;5.75;;;8.90;99.90;;;;;;4860571;29;20128;-79
2023/04/24 10:40:35;;;;;;;10.27;5.53;;;8.80;99.90;;;;;;4860447;29;20050;-79
2023/04/24 10:43:07;;;;;;;9.82;4.45;;;8.80;99.90;;;;;;4860591;29;20487;-79
2023/04/24 10:45:34;;;;;;;11.10;5.03;;;8.70;99.90;;;;;;4891260;29;20503;-79
2023/04/24 10:48:03;;;;;;;15.70;5.50;;;8.70;99.90;;;;;;4863202;29;20162;-79
2023/04/24 10:50:46;;;;;;;10.68;5.15;;;8.70;99.90;;;;;;4879211;29;20044;-79
2023/04/24 10:53:23;;;;;;;15.60;6.03;;;8.70;99.90;;;;;;4894043;29;20057;-79
2023/04/24 10:55:51;;;;;;;12.70;5.40;;;8.70;99.90;;;;;;4893444;29;20503;-79
2023/04/24 10:58:35;;;;;;;13.60;5.35;;;8.70;99.90;;;;;;4877947;29;20115;-78
2023/04/24 11:01:02;;;;;;;15.95;6.15;;;8.80;99.90;;;;;;4878491;29;20136;-78
2023/04/24 11:03:30;;;;;;;20.17;5.28;;;8.80;99.90;;;;;;4878026;29;20407;-79
2023/04/24 11:05:59;;;;;;;14.43;5.35;;;8.90;99.90;;;;;;4874400;29;20156;-79
2023/04/24 11:08:42;;;;;;;11.95;5.10;;;8.90;99.90;;;;;;4895360;29;20127;-79
2023/04/24 11:11:17;;;;;;;11.93;5.00;;;9.00;99.90;;;;;;4896626;29;20101;-78
2023/04/24 11:13:56;;;;;;;8.20;4.20;;;9.00;99.90;;;;;;4881880;29;20475;-79
2023/04/24 11:16:34;;;;;;;12.25;4.30;;;9.00;99.90;;;;;;4898941;29;20064;-79
2023/04/24 11:19:06;;;;;;;10.85;3.58;;;9.00;99.90;;;;;;4876512;29;20097;-79
2023/04/24 11:21:54;;;;;;;9.77;3.60;;;9.00;99.90;;;;;;4904532;29;20182;-78
2023/04/24 11:24:37;;;;;;;8.10;2.78;;;9.00;99.90;;;;;;4905845;29;20047;-79
2023/04/24 11:27:07;;;;;;;8.50;3.00;;;9.10;99.90;;;;;;4900219;29;20084;-79
2023/04/24 11:29:56;;;;;;;9.90;3.08;;;9.10;99.90;;;;;;4886802;29;20423;-78
2023/04/24 11:32:26;;;;;;;8.43;3.40;;;9.10;99.90;;;;;;4886588;29;20045;-79
2023/04/24 11:34:55;;;;;;;8.50;3.42;;;9.10;99.90;;;;;;4895550;29;20052;-78
2023/04/24 11:37:24;;;;;;;11.23;3.85;;;9.20;99.90;;;;;;4867177;29;20050;-78
2023/04/24 11:39:52;;;;;;;7.05;3.20;;;9.30;99.90;;;;;;4876727;29;20502;-78
2023/04/24 11:42:21;;;;;;;10.95;3.38;;;9.30;99.90;;;;;;4862393;29;20045;-79
2023/04/24 11:44:49;;;;;;;8.90;2.70;;;9.40;99.90;;;;;;4892598;29;20472;-79
2023/04/24 11:47:16;;;;;;;11.05;3.13;;;9.40;99.90;;;;;;4861515;29;20052;-79
2023/04/24 11:49:43;;;;;;;8.32;2.70;;;9.40;99.90;;;;;;4862500;29;20132;-79
2023/04/24 11:52:10;;;;;;;6.82;2.53;;;9.40;99.90;;;;;;4877686;29;20044;-79
2023/04/24 11:54:37;;;;;;;4.97;2.20;;;9.40;99.90;;;;;;4878384;29;20056;-79
2023/04/24 11:57:06;;;;;;;7.88;2.40;;;9.30;99.90;;;;;;4847531;29;20732;-79
2023/04/24 11:59:37;;;;;;;4.97;2.13;;;9.40;99.90;;;;;;4877764;29;20525;-79
2023/04/24 12:02:05;;;;;;;7.95;2.70;;;9.30;99.90;;;;;;4876815;29;20506;-79
2023/04/24 12:04:40;;;;;;;4.93;2.05;;;9.30;99.90;;;;;;4861951;29;20069;-79
2023/04/24 12:07:10;;;;;;;6.63;2.17;;;9.20;99.90;;;;;;4876531;29;20052;-79
2023/04/24 12:09:42;;;;;;;8.40;2.38;;;9.20;99.90;;;;;;4876898;29;20847;-79
2023/04/24 12:12:09;;;;;;;6.10;1.90;;;9.10;99.90;;;;;;4861905;29;20041;-79
2023/04/24 12:14:47;;;;;;;6.43;2.10;;;9.10;99.90;;;;;;4877296;29;20149;-79
2023/04/24 12:17:15;;;;;;;6.68;1.70;;;9.10;99.90;;;;;;4877165;29;20052;-79
2023/04/24 12:19:48;;;;;;;5.22;1.80;;;9.10;99.90;;;;;;4877234;29;20041;-79
2023/04/24 12:22:15;;;;;;;6.40;2.33;;;9.00;99.90;;;;;;4877206;29;20080;-79
2023/04/24 12:25:03;;;;;;;7.07;1.80;;;9.00;99.90;;;;;;4892129;29;20103;-80
2023/04/24 12:27:32;;;;;;;9.75;1.83;;;9.00;99.90;;;;;;4877153;29;20132;-79
2023/04/24 12:30:00;;;;;;;5.78;2.10;;;9.10;99.90;;;;;;4876498;29;20054;-79
2023/04/24 12:32:27;;;;;;;7.03;2.10;;;9.20;99.90;;;;;;4875869;29;20106;-79
2023/04/24 12:34:55;;;;;;;5.55;1.98;;;9.30;99.90;;;;;;4876479;29;20054;-79
2023/04/24 12:37:26;;;;;;;6.20;1.80;;;9.40;99.90;;;;;;4892421;29;20045;-79
2023/04/24 12:40:02;;;;;;;5.18;1.70;;;9.40;99.90;;;;;;4860727;29;20434;-79
2023/04/24 12:42:30;;;;;;;4.63;1.70;;;9.40;99.90;;;;;;4876784;29;20060;-79
2023/04/24 12:45:05;;;;;;;5.43;1.67;;;9.40;99.90;;;;;;4889607;29;20049;-79
2023/04/24 12:47:34;;;;;;;7.43;1.92;;;9.30;99.90;;;;;;4862568;29;20440;-79
2023/04/24 12:50:01;;;;;;;10.18;1.98;;;9.20;99.90;;;;;;4891867;29;20128;-79
2023/04/24 12:52:29;;;;;;;5.20;1.90;;;9.20;99.90;;;;;;4876920;29;20049;-79
2023/04/24 12:54:58;;;;;;;7.00;1.60;;;9.10;99.90;;;;;;4894438;29;20041;-79
2023/04/24 12:57:26;;;;;;;3.45;1.50;;;9.00;99.90;;;;;;4894000;29;20109;-79